sensor_id;sensor_type;location;lat;lon;timestamp;temperature;humidity
52024;DHT22;38038;45.922;13.604;2022-09-27T17:46:47;15.30;99.90
52024;DHT22;38038;45.922;13.604;2022-09-27T17:49:32;15.40;99.90
52024;DHT22;38038;45.922;13.604;2022-09-27T17:52:18;15.40;99.90
52024;DHT22;38038;45.922;13.604;2022-09-27T17:54:44;15.40;99.90
52024;DHT22;38038;45.922;13.604;2022-09-27T17:57:10;15.50;99.90
52024;DHT22;38038;45.922;13.604;2022-09-27T17:59:36;15.40;99.90
52024;DHT22;38038;45.922;13.604;2022-09-27T18:02:02;15.40;99.90
52024;DHT22;38038;45.922;13.604;2022-09-27T18:04:29;15.40;99.90
52024;DHT22;38038;45.922;13.604;2022-09-27T18:06:56;15.30;99.90
52024;DHT22;38038;45.922;13.604;2022-09-27T18:09:22;15.40;99.90
52024;DHT22;38038;45.922;13.604;2022-09-27T18:11:48;15.40;99.90
52024;DHT22;38038;45.922;13.604;2022-09-27T18:14:16;15.40;99.90
52024;DHT22;38038;45.922;13.604;2022-09-27T18:16:42;15.40;99.90
52024;DHT22;38038;45.922;13.604;2022-09-27T18:19:11;15.40;99.90
52024;DHT22;38038;45.922;13.604;2022-09-27T18:21:37;15.40;99.90
52024;DHT22;38038;45.922;13.604;2022-09-27T18:24:04;15.40;99.90
52024;DHT22;38038;45.922;13.604;2022-09-27T18:26:32;15.40;99.90
52024;DHT22;38038;45.922;13.604;2022-09-27T18:29:12;15.40;99.90
52024;DHT22;38038;45.922;13.604;2022-09-27T18:31:40;15.50;99.90
52024;DHT22;38038;45.922;13.604;2022-09-27T18:34:07;15.50;99.90
52024;DHT22;38038;45.922;13.604;2022-09-27T18:36:35;15.50;99.90
52024;DHT22;38038;45.922;13.604;2022-09-27T18:39:03;15.50;99.90
52024;DHT22;38038;45.922;13.604;2022-09-27T18:41:32;15.40;99.90
52024;DHT22;38038;45.922;13.604;2022-09-27T18:44:00;15.40;99.90
52024;DHT22;38038;45.922;13.604;2022-09-27T18:46:35;15.40;99.90
52024;DHT22;38038;45.922;13.604;2022-09-27T18:49:06;15.30;99.90
52024;DHT22;38038;45.922;13.604;2022-09-27T18:51:34;15.30;99.90
52024;DHT22;38038;45.922;13.604;2022-09-27T18:54:06;15.40;99.90
52024;DHT22;38038;45.922;13.604;2022-09-27T18:56:34;15.40;99.90
52024;DHT22;38038;45.922;13.604;2022-09-27T18:59:04;15.30;99.90
52024;DHT22;38038;45.922;13.604;2022-09-27T19:01:36;15.30;99.90
52024;DHT22;38038;45.922;13.604;2022-09-27T19:04:12;15.20;99.90
52024;DHT22;38038;45.922;13.604;2022-09-27T19:06:42;15.20;99.90
52024;DHT22;38038;45.922;13.604;2022-09-27T19:09:10;15.20;99.90
52024;DHT22;38038;45.922;13.604;2022-09-27T19:11:37;15.20;99.90
52024;DHT22;38038;45.922;13.604;2022-09-27T19:14:05;15.20;99.90
52024;DHT22;38038;45.922;13.604;2022-09-27T19:16:31;15.20;99.90
52024;DHT22;38038;45.922;13.604;2022-09-27T19:18:58;15.20;99.90
52024;DHT22;38038;45.922;13.604;2022-09-27T19:21:27;15.10;99.90
52024;DHT22;38038;45.922;13.604;2022-09-27T19:23:58;15.10;99.90
52024;DHT22;38038;45.922;13.604;2022-09-27T19:26:26;15.00;99.90
52024;DHT22;38038;45.922;13.604;2022-09-27T19:28:53;14.90;99.90
52024;DHT22;38038;45.922;13.604;2022-09-27T19:31:22;14.90;99.90
52024;DHT22;38038;45.922;13.604;2022-09-27T19:33:50;14.80;99.90
52024;DHT22;38038;45.922;13.604;2022-09-27T19:36:20;14.80;99.90
52024;DHT22;38038;45.922;13.604;2022-09-27T19:38:47;14.80;99.90
52024;DHT22;38038;45.922;13.604;2022-09-27T19:41:15;14.90;99.90
52024;DHT22;38038;45.922;13.604;2022-09-27T19:43:41;14.80;99.90
52024;DHT22;38038;45.922;13.604;2022-09-27T19:46:14;14.80;99.90
52024;DHT22;38038;45.922;13.604;2022-09-27T19:48:41;14.70;99.90
52024;DHT22;38038;45.922;13.604;2022-09-27T19:51:11;14.70;99.90
52024;DHT22;38038;45.922;13.604;2022-09-27T19:53:38;14.70;99.90
52024;DHT22;38038;45.922;13.604;2022-09-27T19:56:07;14.80;99.90
52024;DHT22;38038;45.922;13.604;2022-09-27T19:58:35;14.80;99.90
52024;DHT22;38038;45.922;13.604;2022-09-27T20:01:11;14.80;99.90
52024;DHT22;38038;45.922;13.604;2022-09-27T20:03:40;14.80;99.90
52024;DHT22;38038;45.922;13.604;2022-09-27T20:06:08;14.90;99.90
52024;DHT22;38038;45.922;13.604;2022-09-27T20:08:35;14.70;99.90
52024;DHT22;38038;45.922;13.604;2022-09-27T20:11:04;14.70;99.90
52024;DHT22;38038;45.922;13.604;2022-09-27T20:13:32;14.80;99.90
52024;DHT22;38038;45.922;13.604;2022-09-27T20:16:06;14.80;99.90
52024;DHT22;38038;45.922;13.604;2022-09-27T20:18:33;14.70;99.90
52024;DHT22;38038;45.922;13.604;2022-09-27T20:21:04;14.60;99.90
52024;DHT22;38038;45.922;13.604;2022-09-27T20:23:32;14.60;99.90
52024;DHT22;38038;45.922;13.604;2022-09-27T20:26:00;14.50;99.90
52024;DHT22;38038;45.922;13.604;2022-09-27T20:28:26;14.60;99.90
52024;DHT22;38038;45.922;13.604;2022-09-27T20:31:00;14.60;99.90
52024;DHT22;38038;45.922;13.604;2022-09-27T20:33:27;14.60;99.90
52024;DHT22;38038;45.922;13.604;2022-09-27T20:36:06;14.60;99.90
52024;DHT22;38038;45.922;13.604;2022-09-27T20:38:34;14.60;99.90
52024;DHT22;38038;45.922;13.604;2022-09-27T20:41:01;14.70;99.90
52024;DHT22;38038;45.922;13.604;2022-09-27T20:43:28;14.70;99.90
52024;DHT22;38038;45.922;13.604;2022-09-27T20:46:04;14.80;99.90
52024;DHT22;38038;45.922;13.604;2022-09-27T20:48:30;14.90;99.90
52024;DHT22;38038;45.922;13.604;2022-09-27T20:50:57;14.90;99.90
52024;DHT22;38038;45.922;13.604;2022-09-27T20:53:24;14.90;99.90
52024;DHT22;38038;45.922;13.604;2022-09-27T20:55:57;14.90;99.90
52024;DHT22;38038;45.922;13.604;2022-09-27T20:58:24;14.90;99.90
52024;DHT22;38038;45.922;13.604;2022-09-27T21:00:50;14.90;99.90
52024;DHT22;38038;45.922;13.604;2022-09-27T21:03:16;14.90;99.90
52024;DHT22;38038;45.922;13.604;2022-09-27T21:05:52;14.90;99.90
52024;DHT22;38038;45.922;13.604;2022-09-27T21:08:18;14.90;99.90
52024;DHT22;38038;45.922;13.604;2022-09-27T21:10:44;14.90;99.90
52024;DHT22;38038;45.922;13.604;2022-09-27T21:13:09;14.80;99.90
52024;DHT22;38038;45.922;13.604;2022-09-27T21:15:35;14.80;99.90
52024;DHT22;38038;45.922;13.604;2022-09-27T21:18:00;14.80;99.90
52024;DHT22;38038;45.922;13.604;2022-09-27T21:20:26;14.80;99.90
52024;DHT22;38038;45.922;13.604;2022-09-27T21:22:52;14.80;99.90
52024;DHT22;38038;45.922;13.604;2022-09-27T21:25:17;14.70;99.90
52024;DHT22;38038;45.922;13.604;2022-09-27T21:27:43;14.80;99.90
52024;DHT22;38038;45.922;13.604;2022-09-27T21:30:11;14.70;99.90
52024;DHT22;38038;45.922;13.604;2022-09-27T21:32:37;14.70;99.90
52024;DHT22;38038;45.922;13.604;2022-09-27T21:35:03;14.70;99.90
52024;DHT22;38038;45.922;13.604;2022-09-27T21:37:30;14.70;99.90
52024;DHT22;38038;45.922;13.604;2022-09-27T21:39:55;14.70;99.90
52024;DHT22;38038;45.922;13.604;2022-09-27T21:42:22;14.60;99.90
52024;DHT22;38038;45.922;13.604;2022-09-27T21:44:47;14.40;99.90
52024;DHT22;38038;45.922;13.604;2022-09-27T21:47:13;14.30;99.90
52024;DHT22;38038;45.922;13.604;2022-09-27T21:49:39;14.10;99.90
52024;DHT22;38038;45.922;13.604;2022-09-27T21:52:04;14.10;99.90
52024;DHT22;38038;45.922;13.604;2022-09-27T21:54:30;14.30;99.90
52024;DHT22;38038;45.922;13.604;2022-09-27T21:56:56;14.30;99.90
52024;DHT22;38038;45.922;13.604;2022-09-27T21:59:21;14.10;99.90
52024;DHT22;38038;45.922;13.604;2022-09-27T22:01:47;14.20;99.90
52024;DHT22;38038;45.922;13.604;2022-09-27T22:04:13;14.30;99.90
52024;DHT22;38038;45.922;13.604;2022-09-27T22:06:39;14.40;99.90
52024;DHT22;38038;45.922;13.604;2022-09-27T22:09:09;14.40;99.90
52024;DHT22;38038;45.922;13.604;2022-09-27T22:11:38;14.40;99.90
52024;DHT22;38038;45.922;13.604;2022-09-27T22:14:04;14.40;99.90
52024;DHT22;38038;45.922;13.604;2022-09-27T22:16:34;14.50;99.90
52024;DHT22;38038;45.922;13.604;2022-09-27T22:18:59;14.50;99.90
52024;DHT22;38038;45.922;13.604;2022-09-27T22:21:31;14.60;99.90
52024;DHT22;38038;45.922;13.604;2022-09-27T22:24:03;14.80;99.90
52024;DHT22;38038;45.922;13.604;2022-09-27T22:26:31;14.90;99.90
52024;DHT22;38038;45.922;13.604;2022-09-27T22:28:57;15.00;99.90
52024;DHT22;38038;45.922;13.604;2022-09-27T22:31:24;14.90;99.90
52024;DHT22;38038;45.922;13.604;2022-09-27T22:33:55;14.60;99.90
52024;DHT22;38038;45.922;13.604;2022-09-27T22:36:22;14.50;99.90
52024;DHT22;38038;45.922;13.604;2022-09-27T22:38:49;14.40;99.90
52024;DHT22;38038;45.922;13.604;2022-09-27T22:41:15;14.30;99.90
52024;DHT22;38038;45.922;13.604;2022-09-27T22:43:41;14.20;99.90
52024;DHT22;38038;45.922;13.604;2022-09-27T22:46:08;14.00;99.90
52024;DHT22;38038;45.922;13.604;2022-09-27T22:48:34;13.90;99.90
52024;DHT22;38038;45.922;13.604;2022-09-27T22:51:01;13.90;99.90
52024;DHT22;38038;45.922;13.604;2022-09-27T22:53:29;13.90;99.90
52024;DHT22;38038;45.922;13.604;2022-09-27T22:56:00;13.90;99.90
52024;DHT22;38038;45.922;13.604;2022-09-27T22:58:26;13.90;99.90
52024;DHT22;38038;45.922;13.604;2022-09-27T23:00:53;13.90;99.90
52024;DHT22;38038;45.922;13.604;2022-09-27T23:03:19;13.70;99.90
52024;DHT22;38038;45.922;13.604;2022-09-27T23:05:45;13.80;99.90
52024;DHT22;38038;45.922;13.604;2022-09-27T23:08:11;13.70;99.90
52024;DHT22;38038;45.922;13.604;2022-09-27T23:10:36;13.60;99.90
52024;DHT22;38038;45.922;13.604;2022-09-27T23:13:03;13.50;99.90
52024;DHT22;38038;45.922;13.604;2022-09-27T23:15:29;13.50;99.90
52024;DHT22;38038;45.922;13.604;2022-09-27T23:17:55;13.50;99.90
52024;DHT22;38038;45.922;13.604;2022-09-27T23:20:21;13.30;99.90
52024;DHT22;38038;45.922;13.604;2022-09-27T23:22:48;13.20;99.90
52024;DHT22;38038;45.922;13.604;2022-09-27T23:25:14;13.20;99.90
52024;DHT22;38038;45.922;13.604;2022-09-27T23:27:39;13.20;99.90
52024;DHT22;38038;45.922;13.604;2022-09-27T23:30:12;13.20;99.90
52024;DHT22;38038;45.922;13.604;2022-09-27T23:32:39;13.10;99.90
52024;DHT22;38038;45.922;13.604;2022-09-27T23:35:05;13.10;99.90
52024;DHT22;38038;45.922;13.604;2022-09-27T23:37:31;13.10;99.90
52024;DHT22;38038;45.922;13.604;2022-09-27T23:39:57;13.10;99.90
52024;DHT22;38038;45.922;13.604;2022-09-27T23:42:22;13.10;99.90
52024;DHT22;38038;45.922;13.604;2022-09-27T23:47:39;13.10;99.90
52024;DHT22;38038;45.922;13.604;2022-09-27T23:50:05;13.10;99.90
52024;DHT22;38038;45.922;13.604;2022-09-27T23:52:31;13.20;99.90
52024;DHT22;38038;45.922;13.604;2022-09-27T23:54:56;13.20;99.90
52024;DHT22;38038;45.922;13.604;2022-09-27T23:57:22;13.20;99.90
52024;DHT22;38038;45.922;13.604;2022-09-27T23:59:48;13.10;99.90
